首页
METAR-TAF:

METAR-TAF

机场 :

兰州, 中华人民共和国

兰州中川国际机场

纬度: 36-02N, 经度: 103-52E, 海拔: 1518米

当前天气观测

该预报发布于43分钟前的05:00 UTC
风速6节,风向南转西南,在东南西之间变化
温度 7°C
湿度 22%
气压 1019 hPa
能见度10公里或以上
1500米以下无云,无积雨云

METAR: ZLLL 250500Z 20003MPS 140V260 CAVOK 07/M13 Q1019 NOSIG

时间: 13:43 (05:43 UTC)

预报

该预报发布于2小时和42分钟前的03:01 UTC
预报有效从25日的 06点(UTC)到 26日的 06点(UTC)
风速6节,风向东北
能見度: 6000

TAF: ZLLL 250301Z 2506/2606 05003MPS 6000 NSC TX10/2508Z TNM12/23Z

超过4000个机场的气象观测和天气预报(METAR&TAF报告)。

可查询的气象台以黄色和红色小点在地图上表示。

将鼠标移到小点上方,可查看气象台名称。

然后点击查看天气观测和预报。

如需切换地图:点击带黑十字的绿色按钮放大地图;点击带横线的绿色按钮缩小地图;或者点击绿色箭头查看邻近地区的地图。


METAR-TAF: